sensor_id;sensor_type;location;lat;lon;timestamp;pressure;altitude;pressure_sealevel;temperature;humidity
62592;BME280;48659;41.622;2.276;2023-03-20T00:00:13;100470.34;;;12.01;56.33
62592;BME280;48659;41.622;2.276;2023-03-20T00:02:42;100467.55;;;11.79;57.03
62592;BME280;48659;41.622;2.276;2023-03-20T00:05:19;100465.47;;;11.46;57.04
62592;BME280;48659;41.622;2.276;2023-03-20T00:07:47;100459.11;;;11.60;57.27
62592;BME280;48659;41.622;2.276;2023-03-20T00:10:17;100462.33;;;11.49;56.33
62592;BME280;48659;41.622;2.276;2023-03-20T00:12:46;100461.57;;;10.68;60.97
62592;BME280;48659;41.622;2.276;2023-03-20T00:15:23;100460.99;;;10.40;60.77
62592;BME280;48659;41.622;2.276;2023-03-20T00:17:51;100458.79;;;10.64;60.08
62592;BME280;48659;41.622;2.276;2023-03-20T00:20:19;100458.46;;;11.42;58.10
62592;BME280;48659;41.622;2.276;2023-03-20T00:22:47;100457.22;;;9.90;61.80
62592;BME280;48659;41.622;2.276;2023-03-20T00:25:16;100460.54;;;8.77;62.87
62592;BME280;48659;41.622;2.276;2023-03-20T00:27:45;100449.63;;;10.87;59.37
62592;BME280;48659;41.622;2.276;2023-03-20T00:30:19;100446.39;;;10.36;59.50
62592;BME280;48659;41.622;2.276;2023-03-20T00:32:47;100442.87;;;11.01;59.46
62592;BME280;48659;41.622;2.276;2023-03-20T00:35:19;100444.73;;;11.44;57.83
62592;BME280;48659;41.622;2.276;2023-03-20T00:37:46;100442.47;;;11.66;58.18
62592;BME280;48659;41.622;2.276;2023-03-20T00:40:14;100445.77;;;10.12;61.58
62592;BME280;48659;41.622;2.276;2023-03-20T00:42:43;100440.80;;;11.18;59.33
62592;BME280;48659;41.622;2.276;2023-03-20T00:45:15;100439.69;;;11.30;59.55
62592;BME280;48659;41.622;2.276;2023-03-20T00:47:44;100435.75;;;12.39;56.92
62592;BME280;48659;41.622;2.276;2023-03-20T00:50:17;100437.55;;;11.55;57.28
62592;BME280;48659;41.622;2.276;2023-03-20T00:52:44;100429.35;;;12.51;54.87
62592;BME280;48659;41.622;2.276;2023-03-20T00:55:12;100424.35;;;11.83;55.17
62592;BME280;48659;41.622;2.276;2023-03-20T00:57:43;100419.56;;;12.17;55.08
62592;BME280;48659;41.622;2.276;2023-03-20T01:00:24;100419.46;;;11.17;58.17
62592;BME280;48659;41.622;2.276;2023-03-20T01:02:54;100418.30;;;10.42;59.16
62592;BME280;48659;41.622;2.276;2023-03-20T01:05:22;100411.24;;;11.59;55.85
62592;BME280;48659;41.622;2.276;2023-03-20T01:07:50;100402.02;;;12.09;54.98
62592;BME280;48659;41.622;2.276;2023-03-20T01:10:18;100401.60;;;11.77;55.20
62592;BME280;48659;41.622;2.276;2023-03-20T01:12:46;100398.23;;;10.91;56.12
62592;BME280;48659;41.622;2.276;2023-03-20T01:15:19;100393.74;;;10.16;58.59
62592;BME280;48659;41.622;2.276;2023-03-20T01:17:47;100395.73;;;10.35;59.02
62592;BME280;48659;41.622;2.276;2023-03-20T01:20:17;100398.01;;;9.08;59.25
62592;BME280;48659;41.622;2.276;2023-03-20T01:22:45;100397.39;;;10.78;57.91
62592;BME280;48659;41.622;2.276;2023-03-20T01:25:13;100399.82;;;11.13;55.82
62592;BME280;48659;41.622;2.276;2023-03-20T01:27:48;100399.74;;;10.71;57.51
62592;BME280;48659;41.622;2.276;2023-03-20T01:30:20;100404.48;;;9.52;58.49
62592;BME280;48659;41.622;2.276;2023-03-20T01:32:48;100399.45;;;10.43;58.27
62592;BME280;48659;41.622;2.276;2023-03-20T01:35:19;100391.94;;;10.93;56.66
62592;BME280;48659;41.622;2.276;2023-03-20T01:37:48;100386.91;;;11.99;54.41
62592;BME280;48659;41.622;2.276;2023-03-20T01:40:26;100386.25;;;11.06;54.76
62592;BME280;48659;41.622;2.276;2023-03-20T01:42:55;100386.19;;;11.21;55.48
62592;BME280;48659;41.622;2.276;2023-03-20T01:45:25;100380.18;;;9.98;57.38
62592;BME280;48659;41.622;2.276;2023-03-20T01:47:55;100377.62;;;11.39;55.34
62592;BME280;48659;41.622;2.276;2023-03-20T01:50:27;100378.56;;;10.34;56.76
62592;BME280;48659;41.622;2.276;2023-03-20T01:53:01;100378.92;;;10.74;56.84
62592;BME280;48659;41.622;2.276;2023-03-20T01:55:29;100380.53;;;11.44;55.60
62592;BME280;48659;41.622;2.276;2023-03-20T01:58:00;100376.49;;;10.70;57.09
62592;BME280;48659;41.622;2.276;2023-03-20T02:00:29;100369.93;;;11.02;55.06
62592;BME280;48659;41.622;2.276;2023-03-20T02:02:57;100370.41;;;11.29;54.86
62592;BME280;48659;41.622;2.276;2023-03-20T02:05:25;100362.32;;;11.35;54.61
62592;BME280;48659;41.622;2.276;2023-03-20T02:08:03;100355.71;;;11.20;54.12
62592;BME280;48659;41.622;2.276;2023-03-20T02:10:35;100348.50;;;11.00;54.03
62592;BME280;48659;41.622;2.276;2023-03-20T02:13:15;100351.85;;;10.29;56.49
62592;BME280;48659;41.622;2.276;2023-03-20T02:16:03;100350.50;;;10.63;54.76
62592;BME280;48659;41.622;2.276;2023-03-20T02:18:32;100349.81;;;9.95;56.53
62592;BME280;48659;41.622;2.276;2023-03-20T02:22:39;100345.93;;;11.27;53.96
62592;BME280;48659;41.622;2.276;2023-03-20T02:25:35;100342.00;;;10.42;55.30
62592;BME280;48659;41.622;2.276;2023-03-20T02:28:26;100337.44;;;10.50;55.82
62592;BME280;48659;41.622;2.276;2023-03-20T02:31:30;100337.08;;;11.01;54.06
62592;BME280;48659;41.622;2.276;2023-03-20T02:34:29;100339.36;;;9.26;58.67
62592;BME280;48659;41.622;2.276;2023-03-20T02:37:42;100331.83;;;10.21;56.48
62592;BME280;48659;41.622;2.276;2023-03-20T02:40:24;100326.51;;;9.06;56.24
62592;BME280;48659;41.622;2.276;2023-03-20T02:43:03;100322.48;;;10.72;54.28
62592;BME280;48659;41.622;2.276;2023-03-20T02:45:45;100318.04;;;10.35;55.22
62592;BME280;48659;41.622;2.276;2023-03-20T02:48:24;100314.59;;;10.30;55.59
62592;BME280;48659;41.622;2.276;2023-03-20T02:51:00;100313.19;;;10.53;55.43
62592;BME280;48659;41.622;2.276;2023-03-20T02:53:36;100319.64;;;8.03;60.61
62592;BME280;48659;41.622;2.276;2023-03-20T02:56:11;100311.65;;;7.68;63.79
62592;BME280;48659;41.622;2.276;2023-03-20T02:58:45;100306.53;;;7.69;61.90
62592;BME280;48659;41.622;2.276;2023-03-20T03:01:20;100301.69;;;8.71;59.49
62592;BME280;48659;41.622;2.276;2023-03-20T03:03:54;100295.19;;;9.40;56.57
62592;BME280;48659;41.622;2.276;2023-03-20T03:06:26;100295.74;;;8.74;56.54
62592;BME280;48659;41.622;2.276;2023-03-20T03:08:58;100298.65;;;8.33;59.16
62592;BME280;48659;41.622;2.276;2023-03-20T03:11:27;100299.98;;;6.91;62.87
62592;BME280;48659;41.622;2.276;2023-03-20T03:13:57;100298.52;;;7.49;62.24
62592;BME280;48659;41.622;2.276;2023-03-20T03:16:28;100300.74;;;7.89;60.58
62592;BME280;48659;41.622;2.276;2023-03-20T03:23:04;100291.24;;;6.98;64.92
62592;BME280;48659;41.622;2.276;2023-03-20T03:25:35;100290.35;;;5.97;64.50
62592;BME280;48659;41.622;2.276;2023-03-20T03:28:07;100288.74;;;6.85;65.38
62592;BME280;48659;41.622;2.276;2023-03-20T03:30:38;100283.93;;;7.78;63.03
62592;BME280;48659;41.622;2.276;2023-03-20T03:33:13;100283.76;;;8.56;60.44
62592;BME280;48659;41.622;2.276;2023-03-20T03:35:41;100276.93;;;9.68;57.23
62592;BME280;48659;41.622;2.276;2023-03-20T03:38:25;100286.09;;;8.27;60.23
62592;BME280;48659;41.622;2.276;2023-03-20T03:41:06;100290.11;;;7.86;59.99
62592;BME280;48659;41.622;2.276;2023-03-20T03:43:40;100277.37;;;9.15;57.15
62592;BME280;48659;41.622;2.276;2023-03-20T03:46:15;100283.77;;;7.57;59.28
62592;BME280;48659;41.622;2.276;2023-03-20T03:48:48;100271.65;;;9.43;56.32
62592;BME280;48659;41.622;2.276;2023-03-20T03:51:22;100271.68;;;8.92;54.67
62592;BME280;48659;41.622;2.276;2023-03-20T03:53:54;100278.20;;;8.87;57.51
62592;BME280;48659;41.622;2.276;2023-03-20T03:56:26;100272.70;;;8.32;57.50
62592;BME280;48659;41.622;2.276;2023-03-20T03:58:58;100271.97;;;6.73;61.98
62592;BME280;48659;41.622;2.276;2023-03-20T04:01:27;100271.73;;;6.75;62.09
62592;BME280;48659;41.622;2.276;2023-03-20T04:03:58;100275.67;;;8.21;59.27
62592;BME280;48659;41.622;2.276;2023-03-20T04:06:27;100277.62;;;8.31;57.68
62592;BME280;48659;41.622;2.276;2023-03-20T04:08:55;100278.40;;;8.91;56.75
62592;BME280;48659;41.622;2.276;2023-03-20T04:11:24;100274.66;;;9.05;55.10
62592;BME280;48659;41.622;2.276;2023-03-20T04:13:52;100270.69;;;10.06;53.83
62592;BME280;48659;41.622;2.276;2023-03-20T04:16:21;100270.32;;;9.40;53.03
62592;BME280;48659;41.622;2.276;2023-03-20T04:18:50;100275.99;;;10.04;54.49
62592;BME280;48659;41.622;2.276;2023-03-20T04:21:18;100279.10;;;9.40;55.70
62592;BME280;48659;41.622;2.276;2023-03-20T04:23:45;100275.62;;;9.62;56.41
62592;BME280;48659;41.622;2.276;2023-03-20T04:26:13;100276.97;;;9.63;55.04
62592;BME280;48659;41.622;2.276;2023-03-20T04:28:40;100278.97;;;8.82;56.59
62592;BME280;48659;41.622;2.276;2023-03-20T04:31:07;100277.41;;;9.08;56.35
62592;BME280;48659;41.622;2.276;2023-03-20T04:33:34;100276.60;;;9.27;54.93
62592;BME280;48659;41.622;2.276;2023-03-20T04:36:01;100272.31;;;9.63;53.76
62592;BME280;48659;41.622;2.276;2023-03-20T04:38:28;100269.12;;;9.67;54.38
62592;BME280;48659;41.622;2.276;2023-03-20T04:40:56;100265.26;;;9.53;53.20
62592;BME280;48659;41.622;2.276;2023-03-20T04:43:23;100271.74;;;7.57;59.83
62592;BME280;48659;41.622;2.276;2023-03-20T04:45:51;100263.55;;;9.46;54.65
62592;BME280;48659;41.622;2.276;2023-03-20T04:48:20;100260.97;;;8.98;54.19
62592;BME280;48659;41.622;2.276;2023-03-20T04:50:47;100254.98;;;10.24;52.20
62592;BME280;48659;41.622;2.276;2023-03-20T04:53:16;100249.88;;;9.80;52.11
62592;BME280;48659;41.622;2.276;2023-03-20T04:55:44;100250.45;;;9.76;53.33
62592;BME280;48659;41.622;2.276;2023-03-20T04:58:12;100247.96;;;9.76;53.19
62592;BME280;48659;41.622;2.276;2023-03-20T05:00:39;100254.14;;;8.29;56.15
62592;BME280;48659;41.622;2.276;2023-03-20T05:03:06;100253.29;;;9.26;54.64
62592;BME280;48659;41.622;2.276;2023-03-20T05:05:34;100252.49;;;9.44;54.18
62592;BME280;48659;41.622;2.276;2023-03-20T05:08:01;100250.97;;;9.62;53.60
62592;BME280;48659;41.622;2.276;2023-03-20T05:10:28;100252.66;;;9.65;53.27
62592;BME280;48659;41.622;2.276;2023-03-20T05:12:55;100252.25;;;9.82;53.33
62592;BME280;48659;41.622;2.276;2023-03-20T05:15:23;100253.25;;;9.85;52.49
62592;BME280;48659;41.622;2.276;2023-03-20T05:17:51;100250.75;;;9.10;54.82
62592;BME280;48659;41.622;2.276;2023-03-20T05:20:19;100249.43;;;8.79;54.67
62592;BME280;48659;41.622;2.276;2023-03-20T05:22:48;100252.50;;;8.99;55.08
62592;BME280;48659;41.622;2.276;2023-03-20T05:25:19;100247.24;;;8.63;54.23
62592;BME280;48659;41.622;2.276;2023-03-20T05:27:46;100243.75;;;9.73;53.25
62592;BME280;48659;41.622;2.276;2023-03-20T05:30:15;100244.09;;;9.06;53.84
62592;BME280;48659;41.622;2.276;2023-03-20T05:32:43;100241.73;;;8.35;54.32
62592;BME280;48659;41.622;2.276;2023-03-20T05:35:11;100240.07;;;9.06;53.86
62592;BME280;48659;41.622;2.276;2023-03-20T05:37:38;100242.41;;;9.74;53.78
62592;BME280;48659;41.622;2.276;2023-03-20T05:40:06;100245.00;;;9.72;53.51
62592;BME280;48659;41.622;2.276;2023-03-20T05:42:34;100247.10;;;9.08;54.78
62592;BME280;48659;41.622;2.276;2023-03-20T05:45:02;100252.47;;;8.95;54.35
62592;BME280;48659;41.622;2.276;2023-03-20T05:47:30;100260.59;;;7.29;58.28
62592;BME280;48659;41.622;2.276;2023-03-20T05:49:58;100257.04;;;7.65;58.21
62592;BME280;48659;41.622;2.276;2023-03-20T05:52:25;100254.22;;;8.63;56.11
62592;BME280;48659;41.622;2.276;2023-03-20T05:54:52;100249.32;;;9.13;54.82
62592;BME280;48659;41.622;2.276;2023-03-20T05:57:20;100249.15;;;8.91;53.63
62592;BME280;48659;41.622;2.276;2023-03-20T05:59:47;100254.22;;;9.27;53.87
62592;BME280;48659;41.622;2.276;2023-03-20T06:02:15;100257.84;;;9.04;53.69
62592;BME280;48659;41.622;2.276;2023-03-20T06:04:43;100263.05;;;8.62;54.92
62592;BME280;48659;41.622;2.276;2023-03-20T06:07:11;100266.58;;;7.60;57.10
62592;BME280;48659;41.622;2.276;2023-03-20T06:09:39;100268.14;;;8.30;56.34
62592;BME280;48659;41.622;2.276;2023-03-20T06:12:07;100273.64;;;8.67;55.38
62592;BME280;48659;41.622;2.276;2023-03-20T06:14:34;100280.93;;;8.94;54.32
62592;BME280;48659;41.622;2.276;2023-03-20T06:17:01;100287.88;;;9.28;53.45
62592;BME280;48659;41.622;2.276;2023-03-20T06:19:29;100288.39;;;8.13;53.65
62592;BME280;48659;41.622;2.276;2023-03-20T06:21:57;100292.06;;;9.38;52.60
62592;BME280;48659;41.622;2.276;2023-03-20T06:24:25;100294.64;;;8.37;52.46
62592;BME280;48659;41.622;2.276;2023-03-20T06:26:53;100298.04;;;7.75;57.98
62592;BME280;48659;41.622;2.276;2023-03-20T06:29:20;100301.61;;;6.07;61.07
62592;BME280;48659;41.622;2.276;2023-03-20T06:31:48;100300.32;;;8.28;57.23
62592;BME280;48659;41.622;2.276;2023-03-20T06:34:15;100300.41;;;8.77;55.02
62592;BME280;48659;41.622;2.276;2023-03-20T06:36:43;100303.97;;;8.80;56.17
62592;BME280;48659;41.622;2.276;2023-03-20T06:39:10;100307.67;;;8.24;57.60
62592;BME280;48659;41.622;2.276;2023-03-20T06:41:38;100308.16;;;7.12;60.66
62592;BME280;48659;41.622;2.276;2023-03-20T06:44:05;100306.62;;;6.78;63.26
62592;BME280;48659;41.622;2.276;2023-03-20T06:46:32;100307.45;;;6.66;62.45
62592;BME280;48659;41.622;2.276;2023-03-20T06:49:00;100310.52;;;5.39;68.36
62592;BME280;48659;41.622;2.276;2023-03-20T06:51:28;100311.09;;;6.25;66.39
62592;BME280;48659;41.622;2.276;2023-03-20T06:53:55;100306.66;;;7.38;64.01
62592;BME280;48659;41.622;2.276;2023-03-20T06:56:23;100304.74;;;7.76;61.12
62592;BME280;48659;41.622;2.276;2023-03-20T06:58:51;100306.11;;;7.97;62.62
62592;BME280;48659;41.622;2.276;2023-03-20T07:01:19;100302.89;;;9.49;56.74
62592;BME280;48659;41.622;2.276;2023-03-20T07:03:46;100309.17;;;9.13;57.37
62592;BME280;48659;41.622;2.276;2023-03-20T07:06:14;100306.25;;;10.23;53.27
62592;BME280;48659;41.622;2.276;2023-03-20T07:08:41;100305.80;;;9.76;55.10
62592;BME280;48659;41.622;2.276;2023-03-20T07:11:09;100308.76;;;10.02;56.53
62592;BME280;48659;41.622;2.276;2023-03-20T07:13:36;100307.03;;;9.53;55.81
62592;BME280;48659;41.622;2.276;2023-03-20T07:16:05;100310.51;;;10.25;54.08
62592;BME280;48659;41.622;2.276;2023-03-20T07:18:33;100311.62;;;10.83;52.77
62592;BME280;48659;41.622;2.276;2023-03-20T07:21:02;100314.60;;;10.88;52.69
62592;BME280;48659;41.622;2.276;2023-03-20T07:23:31;100315.25;;;11.72;50.82
62592;BME280;48659;41.622;2.276;2023-03-20T07:25:59;100315.96;;;12.11;49.00
62592;BME280;48659;41.622;2.276;2023-03-20T07:28:26;100318.99;;;12.29;48.77
62592;BME280;48659;41.622;2.276;2023-03-20T07:30:53;100324.56;;;10.19;53.17
62592;BME280;48659;41.622;2.276;2023-03-20T07:33:22;100323.01;;;11.69;49.15
62592;BME280;48659;41.622;2.276;2023-03-20T07:35:52;100320.70;;;11.51;50.62
62592;BME280;48659;41.622;2.276;2023-03-20T07:38:20;100320.39;;;12.59;48.51
62592;BME280;48659;41.622;2.276;2023-03-20T07:40:48;100315.45;;;12.85;47.18
62592;BME280;48659;41.622;2.276;2023-03-20T07:43:20;100319.25;;;11.86;47.93
62592;BME280;48659;41.622;2.276;2023-03-20T07:45:48;100319.65;;;13.09;46.82
62592;BME280;48659;41.622;2.276;2023-03-20T07:48:16;100318.95;;;13.00;45.95
62592;BME280;48659;41.622;2.276;2023-03-20T07:50:44;100319.48;;;13.44;45.88
62592;BME280;48659;41.622;2.276;2023-03-20T07:53:12;100317.51;;;13.73;45.85
62592;BME280;48659;41.622;2.276;2023-03-20T07:55:39;100315.24;;;14.04;45.57
62592;BME280;48659;41.622;2.276;2023-03-20T07:58:06;100317.25;;;13.95;45.39
62592;BME280;48659;41.622;2.276;2023-03-20T08:00:33;100314.93;;;13.93;45.15
62592;BME280;48659;41.622;2.276;2023-03-20T08:03:01;100317.42;;;14.02;44.90
62592;BME280;48659;41.622;2.276;2023-03-20T08:05:29;100322.90;;;13.26;45.61
62592;BME280;48659;41.622;2.276;2023-03-20T08:07:57;100321.96;;;13.67;45.22
62592;BME280;48659;41.622;2.276;2023-03-20T08:10:24;100316.94;;;13.18;45.12
62592;BME280;48659;41.622;2.276;2023-03-20T08:12:51;100317.69;;;14.25;44.29
62592;BME280;48659;41.622;2.276;2023-03-20T08:15:19;100318.76;;;14.34;44.62
62592;BME280;48659;41.622;2.276;2023-03-20T08:17:47;100317.42;;;13.31;46.20
62592;BME280;48659;41.622;2.276;2023-03-20T08:20:16;100319.23;;;12.80;46.36
62592;BME280;48659;41.622;2.276;2023-03-20T08:22:44;100320.51;;;12.17;48.67
62592;BME280;48659;41.622;2.276;2023-03-20T08:25:11;100313.35;;;13.62;46.20
62592;BME280;48659;41.622;2.276;2023-03-20T08:27:38;100317.52;;;13.56;45.83
62592;BME280;48659;41.622;2.276;2023-03-20T08:30:07;100319.02;;;13.63;46.07
62592;BME280;48659;41.622;2.276;2023-03-20T08:32:35;100317.71;;;13.85;45.38
62592;BME280;48659;41.622;2.276;2023-03-20T08:35:03;100327.38;;;12.68;47.68
62592;BME280;48659;41.622;2.276;2023-03-20T08:37:31;100321.12;;;14.26;44.52
62592;BME280;48659;41.622;2.276;2023-03-20T08:39:59;100323.04;;;14.09;45.18
62592;BME280;48659;41.622;2.276;2023-03-20T08:42:26;100318.65;;;14.23;44.67
62592;BME280;48659;41.622;2.276;2023-03-20T08:44:54;100318.46;;;14.08;45.29
62592;BME280;48659;41.622;2.276;2023-03-20T08:47:22;100312.12;;;13.79;46.60
62592;BME280;48659;41.622;2.276;2023-03-20T08:49:49;100309.89;;;13.90;46.22
62592;BME280;48659;41.622;2.276;2023-03-20T08:52:17;100312.45;;;12.62;48.36
62592;BME280;48659;41.622;2.276;2023-03-20T08:54:44;100316.83;;;12.44;50.45
62592;BME280;48659;41.622;2.276;2023-03-20T08:57:11;100315.77;;;11.43;53.77
62592;BME280;48659;41.622;2.276;2023-03-20T08:59:38;100312.39;;;10.93;54.70
62592;BME280;48659;41.622;2.276;2023-03-20T09:02:06;100314.17;;;11.67;54.90
62592;BME280;48659;41.622;2.276;2023-03-20T09:04:33;100308.67;;;11.59;54.15
62592;BME280;48659;41.622;2.276;2023-03-20T09:07:01;100307.13;;;11.19;54.92
62592;BME280;48659;41.622;2.276;2023-03-20T09:09:28;100304.89;;;11.81;54.54
62592;BME280;48659;41.622;2.276;2023-03-20T09:11:56;100303.23;;;12.23;53.58
62592;BME280;48659;41.622;2.276;2023-03-20T09:14:25;100300.67;;;11.86;54.63
62592;BME280;48659;41.622;2.276;2023-03-20T09:16:52;100299.63;;;11.86;54.74
62592;BME280;48659;41.622;2.276;2023-03-20T09:19:20;100299.05;;;10.99;55.26
62592;BME280;48659;41.622;2.276;2023-03-20T09:21:47;100299.99;;;11.72;54.47
62592;BME280;48659;41.622;2.276;2023-03-20T09:24:15;100301.06;;;10.72;55.47
62592;BME280;48659;41.622;2.276;2023-03-20T09:26:42;100297.18;;;11.73;54.35
62592;BME280;48659;41.622;2.276;2023-03-20T09:29:22;100301.08;;;12.80;51.32
62592;BME280;48659;41.622;2.276;2023-03-20T09:31:52;100298.41;;;13.25;49.56
62592;BME280;48659;41.622;2.276;2023-03-20T09:34:19;100298.99;;;13.67;47.89
62592;BME280;48659;41.622;2.276;2023-03-20T09:36:46;100297.06;;;15.25;45.42
62592;BME280;48659;41.622;2.276;2023-03-20T09:39:13;100300.68;;;13.56;47.39
62592;BME280;48659;41.622;2.276;2023-03-20T09:41:46;100300.83;;;14.39;45.68
62592;BME280;48659;41.622;2.276;2023-03-20T09:44:21;100300.20;;;13.76;45.53
62592;BME280;48659;41.622;2.276;2023-03-20T09:47:03;100293.25;;;15.54;42.82
62592;BME280;48659;41.622;2.276;2023-03-20T09:49:41;100287.65;;;15.34;41.91
62592;BME280;48659;41.622;2.276;2023-03-20T09:52:19;100285.29;;;15.67;41.34
62592;BME280;48659;41.622;2.276;2023-03-20T09:54:49;100286.62;;;16.32;40.32
62592;BME280;48659;41.622;2.276;2023-03-20T09:57:20;100285.45;;;16.54;39.23
62592;BME280;48659;41.622;2.276;2023-03-20T09:59:52;100282.96;;;16.86;38.87
62592;BME280;48659;41.622;2.276;2023-03-20T10:02:31;100281.72;;;16.48;38.42
62592;BME280;48659;41.622;2.276;2023-03-20T10:05:03;100284.68;;;16.19;39.54
62592;BME280;48659;41.622;2.276;2023-03-20T10:07:41;100284.80;;;15.82;39.45
62592;BME280;48659;41.622;2.276;2023-03-20T10:10:11;100282.05;;;15.60;41.15
62592;BME280;48659;41.622;2.276;2023-03-20T10:12:48;100282.35;;;16.51;39.01
62592;BME280;48659;41.622;2.276;2023-03-20T10:15:27;100279.59;;;16.44;39.13
62592;BME280;48659;41.622;2.276;2023-03-20T10:18:06;100276.47;;;16.91;38.97
62592;BME280;48659;41.622;2.276;2023-03-20T10:20:41;100268.47;;;14.24;40.99
62592;BME280;48659;41.622;2.276;2023-03-20T10:23:17;100274.85;;;13.19;46.86
62592;BME280;48659;41.622;2.276;2023-03-20T10:25:50;100266.21;;;14.49;43.68
62592;BME280;48659;41.622;2.276;2023-03-20T10:28:23;100262.18;;;14.77;42.80
62592;BME280;48659;41.622;2.276;2023-03-20T10:31:00;100260.43;;;16.29;41.33
62592;BME280;48659;41.622;2.276;2023-03-20T10:33:43;100260.17;;;15.48;42.71
62592;BME280;48659;41.622;2.276;2023-03-20T10:36:30;100262.13;;;15.96;41.50
62592;BME280;48659;41.622;2.276;2023-03-20T10:39:05;100258.94;;;16.75;40.05
62592;BME280;48659;41.622;2.276;2023-03-20T10:41:37;100256.26;;;16.92;40.46
62592;BME280;48659;41.622;2.276;2023-03-20T10:44:21;100258.22;;;14.33;43.18
62592;BME280;48659;41.622;2.276;2023-03-20T10:46:52;100250.20;;;17.07;38.45
62592;BME280;48659;41.622;2.276;2023-03-20T10:49:28;100245.78;;;17.66;36.53
62592;BME280;48659;41.622;2.276;2023-03-20T10:52:00;100252.96;;;16.39;38.69
62592;BME280;48659;41.622;2.276;2023-03-20T10:54:31;100244.87;;;17.10;35.94
62592;BME280;48659;41.622;2.276;2023-03-20T10:57:02;100242.52;;;19.03;34.13
62592;BME280;48659;41.622;2.276;2023-03-20T10:59:35;100240.14;;;18.85;34.03
62592;BME280;48659;41.622;2.276;2023-03-20T11:02:09;100231.84;;;19.20;33.40
62592;BME280;48659;41.622;2.276;2023-03-20T11:04:36;100235.97;;;16.60;36.98
62592;BME280;48659;41.622;2.276;2023-03-20T11:07:11;100234.16;;;17.23;36.69
62592;BME280;48659;41.622;2.276;2023-03-20T11:10:06;100230.61;;;16.80;37.64
62592;BME280;48659;41.622;2.276;2023-03-20T11:12:36;100222.16;;;17.40;35.69
62592;BME280;48659;41.622;2.276;2023-03-20T11:15:19;100220.23;;;17.71;34.94
62592;BME280;48659;41.622;2.276;2023-03-20T11:17:51;100219.10;;;16.85;35.93
62592;BME280;48659;41.622;2.276;2023-03-20T11:20:19;100214.91;;;16.23;36.28
62592;BME280;48659;41.622;2.276;2023-03-20T11:22:48;100217.56;;;16.83;35.43
62592;BME280;48659;41.622;2.276;2023-03-20T11:25:27;100216.61;;;16.23;35.98
62592;BME280;48659;41.622;2.276;2023-03-20T11:27:56;100209.09;;;18.50;33.61
62592;BME280;48659;41.622;2.276;2023-03-20T11:30:24;100207.72;;;16.92;35.17
62592;BME280;48659;41.622;2.276;2023-03-20T11:32:54;100207.42;;;16.86;34.15
62592;BME280;48659;41.622;2.276;2023-03-20T11:35:28;100205.56;;;17.24;32.72
62592;BME280;48659;41.622;2.276;2023-03-20T11:38:11;100210.64;;;16.32;39.36
62592;BME280;48659;41.622;2.276;2023-03-20T11:40:39;100209.62;;;15.91;41.51
62592;BME280;48659;41.622;2.276;2023-03-20T11:43:11;100206.39;;;15.32;44.27
62592;BME280;48659;41.622;2.276;2023-03-20T11:45:42;100200.87;;;13.81;46.82
62592;BME280;48659;41.622;2.276;2023-03-20T11:48:17;100197.30;;;14.56;46.80
62592;BME280;48659;41.622;2.276;2023-03-20T11:50:49;100201.49;;;14.27;47.37
62592;BME280;48659;41.622;2.276;2023-03-20T11:53:22;100196.51;;;14.34;46.77
62592;BME280;48659;41.622;2.276;2023-03-20T11:56:04;100195.27;;;14.05;47.84
62592;BME280;48659;41.622;2.276;2023-03-20T11:58:33;100190.08;;;14.24;47.90
62592;BME280;48659;41.622;2.276;2023-03-20T12:01:02;100189.29;;;14.94;47.10
62592;BME280;48659;41.622;2.276;2023-03-20T12:03:40;100180.91;;;14.29;48.68
62592;BME280;48659;41.622;2.276;2023-03-20T12:06:14;100186.95;;;14.11;49.60
62592;BME280;48659;41.622;2.276;2023-03-20T12:08:46;100186.50;;;13.88;49.56
62592;BME280;48659;41.622;2.276;2023-03-20T12:11:37;100185.71;;;14.06;49.59
62592;BME280;48659;41.622;2.276;2023-03-20T12:14:14;100181.51;;;14.71;48.76
62592;BME280;48659;41.622;2.276;2023-03-20T12:16:43;100175.21;;;14.33;48.75
62592;BME280;48659;41.622;2.276;2023-03-20T12:19:16;100174.80;;;14.51;50.49
62592;BME280;48659;41.622;2.276;2023-03-20T12:21:47;100175.39;;;14.01;51.61
62592;BME280;48659;41.622;2.276;2023-03-20T12:24:26;100177.76;;;13.23;51.50
62592;BME280;48659;41.622;2.276;2023-03-20T12:27:10;100177.12;;;13.87;51.85
62592;BME280;48659;41.622;2.276;2023-03-20T12:29:46;100175.01;;;13.82;51.73
62592;BME280;48659;41.622;2.276;2023-03-20T12:32:19;100169.93;;;14.28;49.81
62592;BME280;48659;41.622;2.276;2023-03-20T12:34:54;100166.51;;;14.70;49.55
62592;BME280;48659;41.622;2.276;2023-03-20T12:37:22;100169.57;;;13.57;50.83
62592;BME280;48659;41.622;2.276;2023-03-20T12:39:53;100165.67;;;14.25;51.35
62592;BME280;48659;41.622;2.276;2023-03-20T12:42:30;100163.79;;;13.32;52.15
62592;BME280;48659;41.622;2.276;2023-03-20T12:45:04;100165.34;;;13.89;51.16
62592;BME280;48659;41.622;2.276;2023-03-20T12:47:52;100159.97;;;13.55;52.12
62592;BME280;48659;41.622;2.276;2023-03-20T12:50:29;100157.44;;;14.01;50.71
62592;BME280;48659;41.622;2.276;2023-03-20T12:53:08;100149.62;;;15.16;48.87
62592;BME280;48659;41.622;2.276;2023-03-20T12:55:49;100147.35;;;14.36;50.80
62592;BME280;48659;41.622;2.276;2023-03-20T12:58:25;100141.07;;;13.48;51.60
62592;BME280;48659;41.622;2.276;2023-03-20T13:01:02;100138.85;;;13.76;52.41
62592;BME280;48659;41.622;2.276;2023-03-20T13:04:18;100135.70;;;14.12;52.47
62592;BME280;48659;41.622;2.276;2023-03-20T13:06:52;100137.98;;;13.99;52.78
62592;BME280;48659;41.622;2.276;2023-03-20T13:10:02;100132.73;;;13.04;54.61
62592;BME280;48659;41.622;2.276;2023-03-20T13:12:42;100137.12;;;13.93;53.31
62592;BME280;48659;41.622;2.276;2023-03-20T13:15:24;100137.43;;;13.59;52.79
62592;BME280;48659;41.622;2.276;2023-03-20T13:17:59;100134.83;;;13.73;52.67
62592;BME280;48659;41.622;2.276;2023-03-20T13:20:33;100133.84;;;13.75;52.47